createdAt,value
2022-11-19T00:00:36.388Z,95460.59
2022-11-19T00:03:10.804Z,95456.91
2022-11-19T00:05:46.100Z,95463.13
2022-11-19T00:08:21.421Z,95457.44
2022-11-19T00:10:54.287Z,95452.53
2022-11-19T00:13:26.269Z,95465.63
2022-11-19T00:16:03.643Z,95457.38
2022-11-19T00:18:38.076Z,95457.03
2022-11-19T00:21:12.689Z,95454.03
2022-11-19T00:23:45.668Z,95457.47
2022-11-19T00:26:18.681Z,95454.47
2022-11-19T00:28:52.112Z,95456.00
2022-11-19T00:31:25.745Z,95455.31
2022-11-19T00:34:00.082Z,95457.97
2022-11-19T00:36:33.234Z,95450.75
2022-11-19T00:39:06.511Z,95460.41
2022-11-19T00:41:39.659Z,95455.06
2022-11-19T00:44:12.623Z,95445.97
2022-11-19T00:46:45.483Z,95455.53
2022-11-19T00:49:20.052Z,95449.03
2022-11-19T00:51:53.375Z,95455.53
2022-11-19T00:54:26.468Z,95452.41
2022-11-19T00:56:59.352Z,95449.31
2022-11-19T00:59:32.672Z,95451.44
2022-11-19T01:02:05.519Z,95452.13
2022-11-19T01:04:40.003Z,95458.13
2022-11-19T01:07:13.056Z,95448.41
2022-11-19T01:09:47.414Z,95449.88
2022-11-19T01:12:20.285Z,95449.66
2022-11-19T01:14:53.358Z,95451.81
2022-11-19T01:17:26.217Z,95453.97
2022-11-19T01:20:00.628Z,95465.63
2022-11-19T01:22:33.506Z,95466.19
2022-11-19T01:25:07.219Z,95474.44
2022-11-19T01:27:40.075Z,95474.66
2022-11-19T01:30:13.818Z,95484.03
2022-11-19T01:32:46.796Z,95480.47
2022-11-19T01:35:20.949Z,95474.28
2022-11-19T01:37:54.189Z,95478.72
2022-11-19T01:40:27.441Z,95475.19
2022-11-19T01:43:00.446Z,95481.94
2022-11-19T01:45:36.635Z,95484.94
2022-11-19T01:48:14.611Z,95483.41
2022-11-19T01:50:52.856Z,95483.41
2022-11-19T01:53:30.601Z,95484.94
2022-11-19T01:56:06.021Z,95486.97
2022-11-19T01:58:41.715Z,95485.94
2022-11-19T02:01:15.792Z,95484.16
2022-11-19T02:03:50.224Z,95491.91
2022-11-19T02:06:24.499Z,95487.91
2022-11-19T02:08:57.489Z,95487.22
2022-11-19T02:11:56.393Z,95493.97
2022-11-19T02:14:54.512Z,95492.66
2022-11-19T02:17:42.409Z,95497.75
2022-11-19T02:20:45.493Z,95496.06
2022-11-19T02:23:53.243Z,95494.34
2022-11-19T02:26:58.279Z,95498.44
2022-11-19T02:30:16.586Z,95491.38
2022-11-19T02:32:59.250Z,95494.56
2022-11-19T02:35:43.344Z,95502.00
2022-11-19T02:38:32.372Z,95499.88
2022-11-19T02:41:30.465Z,95501.84
2022-11-19T02:44:41.333Z,95500.47
2022-11-19T02:47:17.527Z,95501.69
2022-11-19T02:49:58.181Z,95503.00
2022-11-19T02:52:31.535Z,95497.31
2022-11-19T02:55:04.973Z,95498.94
2022-11-19T02:57:38.403Z,95499.03
2022-11-19T03:00:30.439Z,95508.69
2022-11-19T03:03:23.619Z,95508.78
2022-11-19T03:06:03.276Z,95506.63
2022-11-19T03:08:36.559Z,95499.38
2022-11-19T03:11:19.381Z,95509.38
2022-11-19T03:14:14.801Z,95509.38
2022-11-19T03:16:56.128Z,95508.59
2022-11-19T03:19:38.847Z,95508.94
2022-11-19T03:22:19.675Z,95511.53
2022-11-19T03:24:59.882Z,95506.44
2022-11-19T03:27:39.782Z,95505.59
2022-11-19T03:30:15.392Z,95505.84
2022-11-19T03:32:53.684Z,95500.75
2022-11-19T03:35:31.095Z,95491.44
2022-11-19T03:38:09.547Z,95493.59
2022-11-19T03:40:43.894Z,95496.84
2022-11-19T03:43:21.927Z,95498.66
2022-11-19T03:45:58.290Z,95500.91
2022-11-19T03:48:32.254Z,95493.13
2022-11-19T03:51:10.600Z,95503.47
2022-11-19T03:53:45.510Z,95498.03
2022-11-19T03:56:21.932Z,95500.69
2022-11-19T03:58:55.614Z,95492.94
2022-11-19T04:01:28.482Z,95502.84
2022-11-19T04:04:18.782Z,95495.63
2022-11-19T04:06:51.888Z,95497.06
2022-11-19T04:09:26.250Z,95499.72
2022-11-19T04:11:59.194Z,95508.50
2022-11-19T04:14:32.152Z,95495.16
2022-11-19T04:17:05.002Z,95498.63
2022-11-19T04:19:38.285Z,95502.50
2022-11-19T04:22:11.230Z,95498.72
2022-11-19T04:24:45.934Z,95501.81
2022-11-19T04:27:18.766Z,95500.69
2022-11-19T04:29:51.637Z,95494.25
2022-11-19T04:32:24.879Z,95499.25
2022-11-19T04:34:57.708Z,95497.34
2022-11-19T04:37:30.586Z,95499.69
2022-11-19T04:40:05.677Z,95510.44
2022-11-19T04:42:38.499Z,95508.91
2022-11-19T04:45:11.937Z,95513.56
2022-11-19T04:47:44.815Z,95513.56
2022-11-19T04:50:18.098Z,95511.00
2022-11-19T04:52:51.670Z,95519.06
2022-11-19T04:55:25.974Z,95521.50
2022-11-19T04:57:58.736Z,95512.38
2022-11-19T05:00:31.608Z,95518.91
2022-11-19T05:03:04.796Z,95513.56
2022-11-19T05:05:37.856Z,95516.25
2022-11-19T05:08:10.665Z,95510.56
2022-11-19T05:10:46.395Z,95507.56
2022-11-19T05:13:19.505Z,95507.13
2022-11-19T05:15:52.782Z,95508.22
2022-11-19T05:18:25.835Z,95506.34
2022-11-19T05:20:59.089Z,95506.66
2022-11-19T05:23:31.958Z,95492.22
2022-11-19T05:26:06.506Z,95496.78
2022-11-19T05:28:40.232Z,95490.25
2022-11-19T05:31:13.486Z,95488.16
2022-11-19T05:33:46.269Z,95488.75
2022-11-19T05:36:19.164Z,95477.78
2022-11-19T05:38:51.941Z,95485.88
2022-11-19T05:41:26.232Z,95491.25
2022-11-19T05:43:58.975Z,95491.97
2022-11-19T05:46:31.899Z,95496.91
2022-11-19T05:49:04.839Z,95495.81
2022-11-19T05:51:37.644Z,95498.06
2022-11-19T05:54:10.873Z,95505.75
2022-11-19T05:56:45.758Z,95517.63
2022-11-19T05:59:18.833Z,95506.63
2022-11-19T06:01:52.035Z,95506.75
2022-11-19T06:04:24.862Z,95513.75
2022-11-19T06:06:57.852Z,95516.66
2022-11-19T06:09:30.706Z,95507.31
2022-11-19T06:12:05.510Z,95512.84
2022-11-19T06:14:38.364Z,95517.28
2022-11-19T06:17:11.345Z,95523.16
2022-11-19T06:19:44.136Z,95522.16
2022-11-19T06:22:17.042Z,95536.78
2022-11-19T06:24:50.010Z,95528.91
2022-11-19T06:27:24.245Z,95539.75
2022-11-19T06:29:57.450Z,95538.72
2022-11-19T06:32:30.458Z,95543.16
2022-11-19T06:35:03.352Z,95543.03
2022-11-19T06:37:36.661Z,95542.56
2022-11-19T06:40:10.576Z,95550.56
2022-11-19T06:42:49.808Z,95559.00
2022-11-19T06:45:23.901Z,95561.78
2022-11-19T06:47:56.884Z,95562.69
2022-11-19T06:50:29.911Z,95572.00
2022-11-19T06:53:02.964Z,95573.06
2022-11-19T06:55:35.886Z,95568.75
2022-11-19T06:58:10.422Z,95588.06
2022-11-19T07:00:43.317Z,95584.09
2022-11-19T07:03:16.651Z,95592.75
2022-11-19T07:05:49.732Z,95593.78
2022-11-19T07:08:22.943Z,95596.00
2022-11-19T07:10:56.607Z,95590.59
2022-11-19T07:13:50.898Z,95597.69
2022-11-19T07:16:23.776Z,95597.13
2022-11-19T07:18:59.009Z,95606.91
2022-11-19T07:21:32.911Z,95606.81
2022-11-19T07:24:08.521Z,95611.56
2022-11-19T07:26:41.311Z,95610.59
2022-11-19T07:29:16.481Z,95617.69
2022-11-19T07:31:50.672Z,95616.66
2022-11-19T07:34:23.542Z,95619.13
2022-11-19T07:36:56.823Z,95620.00
2022-11-19T07:39:29.718Z,95614.00
2022-11-19T07:42:20.234Z,95611.91
2022-11-19T07:44:55.096Z,95616.69
2022-11-19T07:47:28.072Z,95621.00
2022-11-19T07:50:01.169Z,95616.56
2022-11-19T07:52:34.125Z,95627.00
2022-11-19T07:55:07.953Z,95627.91
2022-11-19T07:57:40.782Z,95634.88
2022-11-19T08:00:16.648Z,95631.53
2022-11-19T08:02:50.030Z,95634.22
2022-11-19T08:05:22.992Z,95637.34
2022-11-19T08:07:56.014Z,95637.09
2022-11-19T08:10:31.893Z,95635.72
2022-11-19T08:13:04.985Z,95624.81
2022-11-19T08:15:39.223Z,95627.25
2022-11-19T08:18:15.737Z,95625.03
2022-11-19T08:20:48.849Z,95627.69
2022-11-19T08:23:22.953Z,95626.13
2022-11-19T08:25:55.826Z,95635.25
2022-11-19T08:28:29.039Z,95625.25
2022-11-19T08:31:09.773Z,95632.13
2022-11-19T08:33:42.632Z,95639.72
2022-11-19T08:36:15.443Z,95640.16
2022-11-19T08:38:48.411Z,95629.91
2022-11-19T08:41:38.542Z,95631.47
2022-11-19T08:44:11.477Z,95633.88
2022-11-19T08:46:45.901Z,95642.88
2022-11-19T08:49:18.868Z,95642.72
2022-11-19T08:51:51.710Z,95644.91
2022-11-19T08:54:24.900Z,95643.06
2022-11-19T08:56:57.840Z,95640.06
2022-11-19T08:59:30.665Z,95639.75
2022-11-19T09:02:04.886Z,95640.66
2022-11-19T09:04:37.992Z,95641.06
2022-11-19T09:07:10.868Z,95643.72
2022-11-19T09:09:43.785Z,95647.94
2022-11-19T09:12:17.428Z,95638.69
2022-11-19T09:14:52.121Z,95640.09
2022-11-19T09:17:26.434Z,95639.13
2022-11-19T09:19:59.266Z,95650.75
2022-11-19T09:22:33.337Z,95654.38
2022-11-19T09:25:09.061Z,95656.84
2022-11-19T09:27:41.967Z,95653.53
2022-11-19T09:30:15.394Z,95659.13
2022-11-19T09:32:49.677Z,95660.88
2022-11-19T09:35:22.913Z,95654.25
2022-11-19T09:37:55.787Z,95657.19
2022-11-19T09:40:28.711Z,95659.38
2022-11-19T09:43:14.074Z,95662.34
2022-11-19T09:45:59.994Z,95664.78
2022-11-19T09:48:38.307Z,95674.16
2022-11-19T09:51:14.082Z,95668.78
2022-11-19T09:53:52.221Z,95668.78
2022-11-19T09:56:28.986Z,95676.00
2022-11-19T09:59:08.700Z,95683.94
2022-11-19T10:01:42.026Z,95676.91
2022-11-19T10:04:18.779Z,95681.44
2022-11-19T10:07:01.129Z,95678.66
2022-11-19T10:09:45.991Z,95664.44
2022-11-19T10:12:47.435Z,95664.78
2022-11-19T10:15:25.509Z,95657.88
2022-11-19T10:18:10.189Z,95659.84
2022-11-19T10:21:03.859Z,95653.00
2022-11-19T10:23:48.086Z,95646.84
2022-11-19T10:26:28.092Z,95639.94
2022-11-19T10:29:03.027Z,95646.00
2022-11-19T10:31:38.567Z,95644.81
2022-11-19T10:34:18.769Z,95643.22
2022-11-19T10:36:58.981Z,95641.19
2022-11-19T10:39:36.616Z,95634.53
2022-11-19T10:42:19.229Z,95639.09
2022-11-19T10:44:56.307Z,95637.44
2022-11-19T10:47:34.684Z,95636.28
2022-11-19T10:50:11.430Z,95635.78
2022-11-19T10:52:50.473Z,95638.06
2022-11-19T10:55:27.350Z,95637.19
2022-11-19T10:58:09.379Z,95636.69
2022-11-19T11:00:43.918Z,95627.31
2022-11-19T11:03:22.743Z,95621.09
2022-11-19T11:05:59.078Z,95621.75
2022-11-19T11:08:34.044Z,95618.91
2022-11-19T11:11:06.883Z,95608.41
2022-11-19T11:13:59.570Z,95618.28
2022-11-19T11:16:45.513Z,95609.75
2022-11-19T11:19:21.490Z,95606.16
2022-11-19T11:21:56.008Z,95611.00
2022-11-19T11:24:36.000Z,95607.13
2022-11-19T11:27:22.620Z,95608.94
2022-11-19T11:30:07.235Z,95604.66
2022-11-19T11:32:41.337Z,95601.13
2022-11-19T11:35:39.078Z,95600.34
2022-11-19T11:38:11.970Z,95594.97
2022-11-19T11:44:03.480Z,95590.41
2022-11-19T11:46:41.151Z,95590.06
2022-11-19T11:49:24.238Z,95587.81
2022-11-19T11:52:21.407Z,95589.78
2022-11-19T11:54:57.262Z,95580.72
2022-11-19T11:57:33.836Z,95579.28
2022-11-19T12:00:30.130Z,95582.09
2022-11-19T12:03:06.740Z,95581.91
2022-11-19T12:06:01.280Z,95577.53
2022-11-19T12:08:46.412Z,95589.66
2022-11-19T12:11:25.916Z,95584.56
2022-11-19T12:14:10.702Z,95580.69
2022-11-19T12:16:51.447Z,95577.59
2022-11-19T12:19:59.860Z,95576.38
2022-11-19T12:22:50.036Z,95577.88
2022-11-19T12:25:32.163Z,95570.44
2022-11-19T12:28:20.237Z,95578.03
2022-11-19T12:31:05.903Z,95570.63
2022-11-19T12:33:57.495Z,95573.53
2022-11-19T12:36:39.904Z,95581.03
2022-11-19T12:39:27.024Z,95578.56
2022-11-19T12:42:19.951Z,95579.09
2022-11-19T12:45:02.316Z,95587.63
2022-11-19T12:47:53.828Z,95581.13
2022-11-19T12:50:33.852Z,95591.84
2022-11-19T12:53:16.529Z,95590.63
2022-11-19T12:56:03.905Z,95578.59
2022-11-19T12:58:45.351Z,95586.19
2022-11-19T13:01:24.768Z,95572.25
2022-11-19T13:04:05.541Z,95581.00
2022-11-19T13:06:47.305Z,95569.41
2022-11-19T13:09:36.722Z,95576.28
2022-11-19T13:12:15.441Z,95570.84
2022-11-19T13:14:55.265Z,95569.31
2022-11-19T13:17:32.887Z,95572.03
2022-11-19T13:20:14.494Z,95570.91
2022-11-19T13:22:49.100Z,95573.66
2022-11-19T13:25:26.178Z,95573.31
2022-11-19T13:28:04.233Z,95570.28
2022-11-19T13:30:37.179Z,95578.00
2022-11-19T13:33:17.164Z,95571.91
2022-11-19T13:35:55.880Z,95576.91
2022-11-19T13:38:37.902Z,95564.19
2022-11-19T13:41:15.666Z,95572.97
2022-11-19T13:44:08.214Z,95575.56
2022-11-19T13:46:45.109Z,95579.25
2022-11-19T13:49:23.486Z,95573.72
2022-11-19T13:52:01.055Z,95563.19
2022-11-19T13:54:36.620Z,95573.78
2022-11-19T13:57:23.641Z,95576.75
2022-11-19T14:00:25.286Z,95573.91
2022-11-19T14:03:28.446Z,95579.59
2022-11-19T14:06:24.642Z,95574.47
2022-11-19T14:09:07.232Z,95573.22
2022-11-19T14:12:04.091Z,95576.97
2022-11-19T14:15:06.469Z,95580.34
2022-11-19T14:18:06.524Z,95582.88
2022-11-19T14:20:58.799Z,95578.53
2022-11-19T14:24:06.032Z,95584.97
2022-11-19T14:27:01.683Z,95588.38
2022-11-19T14:29:56.984Z,95589.09
2022-11-19T14:32:36.774Z,95582.13
2022-11-19T14:35:34.213Z,95591.63
2022-11-19T14:38:39.465Z,95591.59
2022-11-19T14:41:33.789Z,95596.09
2022-11-19T14:44:10.739Z,95590.28
2022-11-19T14:46:46.541Z,95595.09
2022-11-19T14:49:34.791Z,95590.81
2022-11-19T14:52:21.226Z,95588.72
2022-11-19T14:54:57.406Z,95589.72
2022-11-19T14:57:33.295Z,95593.38
2022-11-19T15:00:26.406Z,95604.41
2022-11-19T15:02:59.808Z,95600.03
2022-11-19T15:05:36.272Z,95598.75
2022-11-19T15:08:44.170Z,95601.81
2022-11-19T15:11:18.131Z,95599.38
2022-11-19T15:14:38.606Z,95600.50
2022-11-19T15:17:12.637Z,95608.47
2022-11-19T15:19:50.821Z,95608.41
2022-11-19T15:22:51.234Z,95616.44
2022-11-19T15:25:33.859Z,95608.69
2022-11-19T15:28:20.434Z,95615.84
2022-11-19T15:31:27.149Z,95616.16
2022-11-19T15:34:24.614Z,95607.19
2022-11-19T15:37:01.685Z,95608.22
2022-11-19T15:39:39.472Z,95614.19
2022-11-19T15:42:18.057Z,95612.56
2022-11-19T15:44:56.200Z,95611.28
2022-11-19T15:47:38.401Z,95611.56
2022-11-19T15:50:18.283Z,95625.19
2022-11-19T15:53:01.371Z,95630.81
2022-11-19T15:55:34.554Z,95637.91
2022-11-19T15:58:19.601Z,95630.13
2022-11-19T16:00:53.970Z,95634.88
2022-11-19T16:03:26.972Z,95638.91
2022-11-19T16:06:08.504Z,95633.47
2022-11-19T16:08:41.441Z,95640.19
2022-11-19T16:11:35.994Z,95646.22
2022-11-19T16:14:39.929Z,95644.25
2022-11-19T16:17:34.946Z,95653.63
2022-11-19T16:20:21.479Z,95650.88
2022-11-19T16:22:58.684Z,95664.81
2022-11-19T16:25:35.106Z,95658.59
2022-11-19T16:28:11.761Z,95658.41
2022-11-19T16:30:49.559Z,95665.13
2022-11-19T16:33:26.124Z,95666.06
2022-11-19T16:36:13.183Z,95672.41
2022-11-19T16:38:49.103Z,95679.56
2022-11-19T16:41:42.771Z,95683.25
2022-11-19T16:44:18.010Z,95685.81
2022-11-19T16:46:53.330Z,95686.16
2022-11-19T16:49:34.565Z,95688.06
2022-11-19T16:52:08.243Z,95689.94
2022-11-19T16:54:47.433Z,95691.94
2022-11-19T16:57:23.270Z,95691.25
2022-11-19T16:59:58.937Z,95694.03
2022-11-19T17:02:40.232Z,95699.47
2022-11-19T17:05:16.431Z,95690.31
2022-11-19T17:07:51.025Z,95696.56
2022-11-19T17:10:30.655Z,95697.09
2022-11-19T17:13:24.393Z,95699.88
2022-11-19T17:16:17.371Z,95702.63
2022-11-19T17:18:52.180Z,95707.41
2022-11-19T17:21:28.430Z,95706.38
2022-11-19T17:24:01.313Z,95716.72
2022-11-19T17:26:34.452Z,95724.06
2022-11-19T17:29:12.361Z,95726.47
2022-11-19T17:31:48.288Z,95720.47
2022-11-19T17:34:31.122Z,95736.25
2022-11-19T17:37:03.903Z,95733.56
2022-11-19T17:39:36.683Z,95729.88
2022-11-19T17:42:28.285Z,95724.19
2022-11-19T17:45:06.036Z,95718.06
2022-11-19T17:47:42.095Z,95728.06
2022-11-19T17:50:16.453Z,95726.97
2022-11-19T17:52:49.353Z,95733.88
2022-11-19T17:55:23.454Z,95730.84
2022-11-19T17:57:56.250Z,95737.41
2022-11-19T18:00:29.045Z,95735.94
2022-11-19T18:03:03.244Z,95727.13
2022-11-19T18:05:39.510Z,95728.34
2022-11-19T18:08:12.370Z,95741.72
2022-11-19T18:10:47.586Z,95739.06
2022-11-19T18:13:24.003Z,95742.50
2022-11-19T18:15:57.765Z,95749.75
2022-11-19T18:18:30.650Z,95754.31
2022-11-19T18:21:05.220Z,95748.53
2022-11-19T18:23:38.230Z,95747.75
2022-11-19T18:26:11.743Z,95741.63
2022-11-19T18:28:48.595Z,95756.09
2022-11-19T18:31:24.182Z,95746.53
2022-11-19T18:33:57.919Z,95751.47
2022-11-19T18:36:32.136Z,95754.91
2022-11-19T18:39:05.110Z,95753.34
2022-11-19T18:41:38.170Z,95760.16
2022-11-19T18:44:32.045Z,95756.38
2022-11-19T18:47:09.986Z,95765.50
2022-11-19T18:49:43.218Z,95765.41
2022-11-19T18:52:17.361Z,95766.19
2022-11-19T18:54:50.399Z,95765.41
2022-11-19T18:57:23.277Z,95773.41
2022-11-19T18:59:56.111Z,95771.88
2022-11-19T19:02:29.028Z,95765.75
2022-11-19T19:05:01.787Z,95775.69
2022-11-19T19:07:36.114Z,95784.13
2022-11-19T19:10:09.473Z,95781.03
2022-11-19T19:12:42.607Z,95783.69
2022-11-19T19:15:15.547Z,95788.69
2022-11-19T19:17:48.381Z,95787.16
2022-11-19T19:20:21.711Z,95785.25
2022-11-19T19:22:55.953Z,95786.78
2022-11-19T19:25:28.809Z,95791.03
2022-11-19T19:28:01.663Z,95798.25
2022-11-19T19:30:34.481Z,95794.47
2022-11-19T19:33:07.314Z,95792.59
2022-11-19T19:35:40.142Z,95797.94
2022-11-19T19:38:14.340Z,95801.50
2022-11-19T19:40:47.246Z,95791.13
2022-11-19T19:43:20.089Z,95793.81
2022-11-19T19:45:52.925Z,95790.78
2022-11-19T19:48:25.792Z,95796.13
2022-11-19T19:50:58.732Z,95798.03
2022-11-19T19:53:32.903Z,95802.59
2022-11-19T19:56:07.102Z,95801.03
2022-11-19T19:58:40.554Z,95803.72
2022-11-19T20:01:15.177Z,95803.72
2022-11-19T20:03:54.123Z,95807.94
2022-11-19T20:06:27.481Z,95812.53
2022-11-19T20:09:06.909Z,95819.09
2022-11-19T20:11:41.239Z,95820.53
2022-11-19T20:14:14.043Z,95817.41
2022-11-19T20:16:46.930Z,95818.53
2022-11-19T20:19:19.743Z,95818.47
2022-11-19T20:21:52.569Z,95821.47
2022-11-19T20:24:26.725Z,95822.13
2022-11-19T20:26:59.532Z,95813.59
2022-11-19T20:29:32.330Z,95816.91
2022-11-19T20:32:05.447Z,95816.06
2022-11-19T20:34:38.260Z,95820.50
2022-11-19T20:37:11.763Z,95819.66
2022-11-19T20:39:46.007Z,95825.22
2022-11-19T20:42:36.556Z,95823.56
2022-11-19T20:45:09.855Z,95822.22
2022-11-19T20:47:42.785Z,95824.34
2022-11-19T20:50:15.989Z,95819.66
2022-11-19T20:52:48.783Z,95821.47
2022-11-19T20:55:22.910Z,95829.38
2022-11-19T20:57:56.801Z,95831.16
2022-11-19T21:00:29.641Z,95834.03
2022-11-19T21:03:02.451Z,95832.06
2022-11-19T21:05:35.421Z,95827.38
2022-11-19T21:08:08.214Z,95837.94
2022-11-19T21:10:42.950Z,95834.41
2022-11-19T21:13:15.857Z,95831.59
2022-11-19T21:15:48.738Z,95828.06
2022-11-19T21:18:24.258Z,95823.28
2022-11-19T21:21:01.695Z,95828.03
2022-11-19T21:23:35.138Z,95820.59
2022-11-19T21:26:12.182Z,95829.16
2022-11-19T21:28:46.802Z,95819.69
2022-11-19T21:31:21.422Z,95824.34
2022-11-19T21:33:54.283Z,95831.34
2022-11-19T21:36:27.190Z,95827.94
2022-11-19T21:39:00.055Z,95830.69
2022-11-19T21:41:34.743Z,95834.25
2022-11-19T21:44:08.059Z,95839.19
2022-11-19T21:46:40.929Z,95837.38
2022-11-19T21:49:13.844Z,95838.25
2022-11-19T21:51:46.630Z,95836.91
2022-11-19T21:54:19.993Z,95831.28
2022-11-19T21:56:54.264Z,95837.16
2022-11-19T21:59:27.549Z,95836.44
2022-11-19T22:02:00.326Z,95831.16
2022-11-19T22:04:33.155Z,95830.44
2022-11-19T22:07:07.195Z,95831.28
2022-11-19T22:09:40.144Z,95837.13
2022-11-19T22:12:14.556Z,95841.88
2022-11-19T22:14:47.508Z,95840.03
2022-11-19T22:17:20.334Z,95838.31
2022-11-19T22:19:53.240Z,95835.53
2022-11-19T22:22:26.170Z,95846.50
2022-11-19T22:24:59.575Z,95842.59
2022-11-19T22:27:33.938Z,95847.59
2022-11-19T22:30:08.106Z,95841.34
2022-11-19T22:32:40.942Z,95842.91
2022-11-19T22:35:13.994Z,95848.56
2022-11-19T22:37:46.822Z,95842.66
2022-11-19T22:40:19.821Z,95844.06
2022-11-19T22:42:54.169Z,95843.16
2022-11-19T22:45:27.024Z,95837.88
2022-11-19T22:47:59.910Z,95847.09
2022-11-19T22:50:32.970Z,95851.03
2022-11-19T22:53:05.841Z,95852.66
2022-11-19T22:55:39.276Z,95843.09
2022-11-19T22:58:13.645Z,95849.69
2022-11-19T23:00:48.866Z,95859.25
2022-11-19T23:03:21.789Z,95852.88
2022-11-19T23:05:56.297Z,95857.88
2022-11-19T23:08:29.110Z,95856.94
2022-11-19T23:11:04.016Z,95861.31
2022-11-19T23:13:39.881Z,95868.38
2022-11-19T23:16:15.554Z,95865.06
2022-11-19T23:18:50.473Z,95870.25
2022-11-19T23:21:25.782Z,95866.19
2022-11-19T23:23:59.887Z,95865.25
2022-11-19T23:26:34.052Z,95868.09
2022-11-19T23:29:09.190Z,95868.69
2022-11-19T23:31:42.100Z,95867.59
2022-11-19T23:34:14.970Z,95869.78
2022-11-19T23:36:47.762Z,95872.28
2022-11-19T23:39:20.642Z,95870.25
2022-11-19T23:41:53.924Z,95874.63
2022-11-19T23:44:28.338Z,95868.84
2022-11-19T23:47:01.299Z,95867.28
2022-11-19T23:49:34.098Z,95859.63
2022-11-19T23:52:07.058Z,95860.72
2022-11-19T23:54:39.817Z,95865.56
2022-11-19T23:57:12.655Z,95869.94
2022-11-19T23:59:46.860Z,95863.66
